createdAt,value
2023-02-04T00:02:21.404Z,1.22
2023-02-04T00:04:48.544Z,1.23
2023-02-04T00:07:15.676Z,1.38
2023-02-04T00:09:42.840Z,1.30
2023-02-04T00:12:11.496Z,1.74
2023-02-04T00:14:38.759Z,2.42
2023-02-04T00:17:05.861Z,2.85
2023-02-04T00:19:33.007Z,5.89
2023-02-04T00:22:00.119Z,7.54
2023-02-04T00:24:27.321Z,4.45
2023-02-04T00:26:54.519Z,3.41
2023-02-04T00:29:23.521Z,2.93
2023-02-04T00:31:50.900Z,1.70
2023-02-04T00:34:18.249Z,1.48
2023-02-04T00:36:46.261Z,1.82
2023-02-04T00:39:13.663Z,1.75
2023-02-04T00:41:41.144Z,1.86
2023-02-04T00:44:08.304Z,2.11
2023-02-04T00:46:36.881Z,2.52
2023-02-04T00:49:04.101Z,2.74
2023-02-04T00:51:31.287Z,2.49
2023-02-04T00:53:58.406Z,2.53
2023-02-04T00:56:25.662Z,2.50
2023-02-04T00:58:52.728Z,2.26
2023-02-04T01:01:19.975Z,1.75
2023-02-04T01:03:48.704Z,1.59
2023-02-04T01:06:15.867Z,1.64
2023-02-04T01:08:43.106Z,1.83
2023-02-04T01:11:10.265Z,1.71
2023-02-04T01:13:37.447Z,1.83
2023-02-04T01:16:04.829Z,1.87
2023-02-04T01:18:31.987Z,2.11
2023-02-04T01:21:00.576Z,2.10
2023-02-04T01:23:27.867Z,2.01
2023-02-04T01:25:54.986Z,2.25
2023-02-04T01:28:22.295Z,2.00
2023-02-04T01:30:49.681Z,2.08
2023-02-04T01:33:16.887Z,2.17
2023-02-04T01:35:44.227Z,1.86
2023-02-04T01:38:12.848Z,2.13
2023-02-04T01:40:40.488Z,2.03
2023-02-04T01:43:08.359Z,1.74
2023-02-04T01:45:35.980Z,1.77
2023-02-04T01:48:06.646Z,1.92
2023-02-04T01:50:34.253Z,1.73
2023-02-04T01:53:01.989Z,1.98
2023-02-04T01:55:33.069Z,2.02
2023-02-04T01:58:00.586Z,1.93
2023-02-04T02:00:31.227Z,2.02
2023-02-04T02:03:00.014Z,1.56
2023-02-04T02:05:33.771Z,1.23
2023-02-04T02:08:03.784Z,1.32
2023-02-04T02:10:35.211Z,1.34
2023-02-04T02:13:02.438Z,1.46
2023-02-04T02:15:29.690Z,1.65
2023-02-04T02:17:57.128Z,1.33
2023-02-04T02:20:26.749Z,1.25
2023-02-04T02:23:05.452Z,1.97
2023-02-04T02:25:34.518Z,2.27
2023-02-04T02:28:05.257Z,1.97
2023-02-04T02:30:33.215Z,1.63
2023-02-04T02:33:00.846Z,1.24
2023-02-04T02:35:28.497Z,0.82
2023-02-04T02:37:55.562Z,0.97
2023-02-04T02:40:23.046Z,0.91
2023-02-04T02:42:54.905Z,1.00
2023-02-04T02:45:25.926Z,1.45
2023-02-04T02:47:54.322Z,1.68
2023-02-04T02:50:26.037Z,1.55
2023-02-04T02:52:53.770Z,0.96
2023-02-04T02:55:25.091Z,1.31
2023-02-04T02:57:56.216Z,1.65
2023-02-04T03:00:26.160Z,1.96
2023-02-04T03:02:59.736Z,1.91
2023-02-04T03:05:29.178Z,3.89
2023-02-04T03:07:56.477Z,5.05
2023-02-04T03:10:23.634Z,4.20
2023-02-04T03:12:51.116Z,4.16
2023-02-04T03:15:20.437Z,3.50
2023-02-04T03:17:48.134Z,3.52
2023-02-04T03:20:17.559Z,7.00
2023-02-04T03:22:44.719Z,8.91
2023-02-04T03:25:11.885Z,7.77
2023-02-04T03:27:39.188Z,6.60
2023-02-04T03:30:07.982Z,5.64
2023-02-04T03:32:36.623Z,5.07
2023-02-04T03:35:04.122Z,4.14
2023-02-04T03:37:31.280Z,3.78
2023-02-04T03:39:58.341Z,4.56
2023-02-04T03:42:25.509Z,4.55
2023-02-04T03:44:52.702Z,4.42
2023-02-04T03:47:19.842Z,3.71
2023-02-04T03:49:48.561Z,3.87
2023-02-04T03:52:15.701Z,3.83
2023-02-04T03:54:42.842Z,4.39
2023-02-04T03:57:09.984Z,3.98
2023-02-04T03:59:37.122Z,4.88
2023-02-04T04:02:04.304Z,5.86
2023-02-04T04:04:31.420Z,5.57
2023-02-04T04:07:00.100Z,5.59
2023-02-04T04:09:27.343Z,4.85
2023-02-04T04:11:54.433Z,4.40
2023-02-04T04:14:21.572Z,5.35
2023-02-04T04:16:48.697Z,6.09
2023-02-04T04:19:16.739Z,5.90
2023-02-04T04:21:43.833Z,4.63
2023-02-04T04:24:12.411Z,4.43
2023-02-04T04:26:39.592Z,4.16
2023-02-04T04:29:06.810Z,4.69
2023-02-04T04:31:34.040Z,4.30
2023-02-04T04:34:01.287Z,4.27
2023-02-04T04:36:28.366Z,4.57
2023-02-04T04:38:55.487Z,4.59
2023-02-04T04:41:24.108Z,4.44
2023-02-04T04:43:51.197Z,4.39
2023-02-04T04:46:18.311Z,4.16
2023-02-04T04:48:45.584Z,3.78
2023-02-04T04:51:12.760Z,3.58
2023-02-04T04:53:39.887Z,3.09
2023-02-04T04:56:07.323Z,2.26
2023-02-04T04:58:36.029Z,2.02
2023-02-04T05:01:03.169Z,1.72
2023-02-04T05:03:30.305Z,2.21
2023-02-04T05:05:57.395Z,2.36
2023-02-04T05:08:24.706Z,2.55
2023-02-04T05:10:51.785Z,2.36
2023-02-04T05:13:18.915Z,2.65
2023-02-04T05:15:47.514Z,2.99
2023-02-04T05:18:14.646Z,2.84
2023-02-04T05:20:41.807Z,2.62
2023-02-04T05:23:08.906Z,2.57
2023-02-04T05:25:36.046Z,2.78
2023-02-04T05:28:03.331Z,2.83
2023-02-04T05:30:30.768Z,2.66
2023-02-04T05:32:59.665Z,2.66
2023-02-04T05:35:26.850Z,2.39
2023-02-04T05:37:53.932Z,2.00
2023-02-04T05:40:22.132Z,1.91
2023-02-04T05:42:49.449Z,1.68
2023-02-04T05:45:17.403Z,1.32
2023-02-04T05:47:45.009Z,1.11
2023-02-04T05:50:13.851Z,1.33
2023-02-04T05:52:41.372Z,0.98
2023-02-04T05:55:11.772Z,0.81
2023-02-04T05:57:38.969Z,0.78
2023-02-04T06:00:09.306Z,0.86
2023-02-04T06:02:36.387Z,0.93
2023-02-04T06:05:03.633Z,0.83
2023-02-04T06:07:32.313Z,0.82
2023-02-04T06:10:00.347Z,1.01
2023-02-04T06:12:27.749Z,0.97
2023-02-04T06:14:54.886Z,0.81
2023-02-04T06:17:22.113Z,0.89
2023-02-04T06:19:49.313Z,1.05
2023-02-04T06:22:16.531Z,1.08
2023-02-04T06:24:47.349Z,0.86
2023-02-04T06:27:14.647Z,0.95
2023-02-04T06:29:41.851Z,0.79
2023-02-04T06:32:09.045Z,0.83
2023-02-04T06:34:36.166Z,0.88
2023-02-04T06:37:03.246Z,0.84
2023-02-04T06:39:30.500Z,0.92
2023-02-04T06:41:59.225Z,0.92
2023-02-04T06:44:26.344Z,0.85
2023-02-04T06:46:53.643Z,0.80
2023-02-04T06:49:23.783Z,0.76
2023-02-04T06:51:51.805Z,0.84
2023-02-04T06:54:18.944Z,0.78
2023-02-04T06:56:46.086Z,0.85
2023-02-04T06:59:14.722Z,0.87
2023-02-04T07:01:41.937Z,1.03
2023-02-04T07:04:09.156Z,0.91
2023-02-04T07:06:36.307Z,0.85
2023-02-04T07:09:03.695Z,0.87
2023-02-04T07:11:30.883Z,1.01
2023-02-04T07:13:58.064Z,0.93
2023-02-04T07:16:26.724Z,1.01
2023-02-04T07:18:53.992Z,1.19
2023-02-04T07:21:21.195Z,0.98
2023-02-04T07:23:48.404Z,1.18
2023-02-04T07:26:15.592Z,1.27
2023-02-04T07:28:42.712Z,1.39
2023-02-04T07:31:09.958Z,1.70
2023-02-04T07:33:38.957Z,1.36
2023-02-04T07:36:06.651Z,1.44
2023-02-04T07:38:34.253Z,1.18
2023-02-04T07:41:01.487Z,1.40
2023-02-04T07:43:28.861Z,1.27
2023-02-04T07:45:56.069Z,1.05
2023-02-04T07:48:23.280Z,1.05
2023-02-04T07:50:51.920Z,0.99
2023-02-04T07:53:18.978Z,0.99
2023-02-04T07:55:46.077Z,1.08
2023-02-04T07:58:13.280Z,1.25
2023-02-04T08:00:40.489Z,1.06
2023-02-04T08:03:07.830Z,1.04
2023-02-04T08:05:35.018Z,0.91
2023-02-04T08:08:03.601Z,1.15
2023-02-04T08:10:31.083Z,1.10
2023-02-04T08:12:58.359Z,1.09
2023-02-04T08:15:25.612Z,1.25
2023-02-04T08:17:52.695Z,0.93
2023-02-04T08:20:19.983Z,0.94
2023-02-04T08:22:47.290Z,0.98
2023-02-04T08:25:16.092Z,0.96
2023-02-04T08:27:43.266Z,1.03
2023-02-04T08:30:11.755Z,0.85
2023-02-04T08:32:39.315Z,1.12
2023-02-04T08:35:07.711Z,1.12
2023-02-04T08:37:35.403Z,1.14
2023-02-04T08:40:02.622Z,1.32
2023-02-04T08:42:31.493Z,1.11
2023-02-04T08:44:58.818Z,1.27
2023-02-04T08:47:25.981Z,1.15
2023-02-04T08:49:53.219Z,1.16
2023-02-04T08:52:20.410Z,1.31
2023-02-04T08:54:47.576Z,1.27
2023-02-04T08:57:14.737Z,3.22
2023-02-04T08:59:43.415Z,2.23
2023-02-04T09:02:10.949Z,2.24
2023-02-04T09:04:38.276Z,2.19
2023-02-04T09:07:05.407Z,1.79
2023-02-04T09:09:32.536Z,1.92
2023-02-04T09:11:59.857Z,2.03
2023-02-04T09:14:26.942Z,2.01
2023-02-04T09:16:55.545Z,2.46
2023-02-04T09:19:22.664Z,2.12
2023-02-04T09:21:50.286Z,2.36
2023-02-04T09:24:17.430Z,2.19
2023-02-04T09:26:44.664Z,2.52
2023-02-04T09:29:11.842Z,2.66
2023-02-04T09:31:39.071Z,2.88
2023-02-04T09:34:08.505Z,3.30
2023-02-04T09:36:35.684Z,3.15
2023-02-04T09:39:02.868Z,2.62
2023-02-04T09:41:30.238Z,3.20
2023-02-04T09:43:57.408Z,3.06
2023-02-04T09:46:27.494Z,3.11
2023-02-04T09:48:55.749Z,2.94
2023-02-04T09:51:29.119Z,2.69
2023-02-04T09:54:08.611Z,2.48
2023-02-04T09:56:37.131Z,2.98
2023-02-04T09:59:06.597Z,4.15
2023-02-04T10:01:33.812Z,3.55
2023-02-04T10:04:02.709Z,3.00
2023-02-04T10:06:32.293Z,3.77
2023-02-04T10:09:00.170Z,3.30
2023-02-04T10:11:32.248Z,3.10
2023-02-04T10:13:59.444Z,3.51
2023-02-04T10:16:31.249Z,3.09
2023-02-04T10:19:00.820Z,3.48
2023-02-04T10:21:30.242Z,3.44
2023-02-04T10:24:02.744Z,3.53
2023-02-04T10:26:32.150Z,3.24
2023-02-04T10:29:01.768Z,2.96
2023-02-04T10:31:35.391Z,2.58
2023-02-04T10:34:04.811Z,2.57
2023-02-04T10:36:32.042Z,2.64
2023-02-04T10:39:06.883Z,2.07
2023-02-04T10:41:34.032Z,2.18
2023-02-04T10:44:06.716Z,2.12
2023-02-04T10:46:34.513Z,2.08
2023-02-04T10:49:04.833Z,2.15
2023-02-04T10:51:33.595Z,2.62
2023-02-04T10:54:00.773Z,2.04
2023-02-04T10:56:29.616Z,1.36
2023-02-04T10:58:56.919Z,0.99
2023-02-04T11:01:29.855Z,0.86
2023-02-04T11:03:57.261Z,1.00
2023-02-04T11:06:25.563Z,0.65
2023-02-04T11:08:52.860Z,0.60
2023-02-04T11:11:22.905Z,0.68
2023-02-04T11:14:01.462Z,0.82
2023-02-04T11:16:31.001Z,1.10
2023-02-04T11:19:01.424Z,0.70
2023-02-04T11:21:42.063Z,0.81
2023-02-04T11:24:25.205Z,0.61
2023-02-04T11:26:53.841Z,0.68
2023-02-04T11:29:31.231Z,0.83
2023-02-04T11:32:03.287Z,0.91
2023-02-04T11:34:45.558Z,0.81
2023-02-04T11:37:37.649Z,0.72
2023-02-04T11:40:26.037Z,0.39
2023-02-04T11:43:02.773Z,0.39
2023-02-04T11:45:34.835Z,0.48
2023-02-04T11:48:10.311Z,0.41
2023-02-04T11:50:38.011Z,0.36
2023-02-04T11:53:05.771Z,0.61
2023-02-04T11:55:37.201Z,0.55
2023-02-04T11:58:04.467Z,0.54
2023-02-04T12:00:34.512Z,0.35
2023-02-04T12:03:04.503Z,0.23
2023-02-04T12:05:42.318Z,0.38
2023-02-04T12:08:26.387Z,0.47
2023-02-04T12:11:06.195Z,0.49
2023-02-04T12:13:34.703Z,0.53
2023-02-04T12:16:06.661Z,0.38
2023-02-04T12:18:35.480Z,0.56
2023-02-04T12:21:03.292Z,0.47
2023-02-04T12:23:31.672Z,0.43
2023-02-04T12:25:59.880Z,0.53
2023-02-04T12:28:27.787Z,0.53
2023-02-04T12:30:58.275Z,0.55
2023-02-04T12:33:27.927Z,0.67
2023-02-04T12:35:55.102Z,0.47
2023-02-04T12:38:22.291Z,0.57
2023-02-04T12:40:49.406Z,0.43
2023-02-04T12:43:16.553Z,0.40
2023-02-04T12:45:43.708Z,0.49
2023-02-04T12:48:10.968Z,0.53
2023-02-04T12:50:39.763Z,1.31
2023-02-04T12:53:07.477Z,1.37
2023-02-04T12:55:34.948Z,0.97
2023-02-04T12:58:02.522Z,0.82
2023-02-04T13:00:29.824Z,0.74
2023-02-04T13:02:57.161Z,1.04
2023-02-04T13:05:24.585Z,0.80
2023-02-04T13:07:53.357Z,0.84
2023-02-04T13:10:20.993Z,0.78
2023-02-04T13:12:48.484Z,0.92
2023-02-04T13:15:16.237Z,0.91
2023-02-04T13:17:43.695Z,1.07
2023-02-04T13:20:12.647Z,0.99
2023-02-04T13:22:40.239Z,1.14
2023-02-04T13:25:09.777Z,1.27
2023-02-04T13:27:37.135Z,1.32
2023-02-04T13:30:05.656Z,1.22
2023-02-04T13:32:35.237Z,1.16
2023-02-04T13:35:02.564Z,1.49
2023-02-04T13:37:29.765Z,1.20
2023-02-04T13:39:56.945Z,1.30
2023-02-04T13:42:25.603Z,1.42
2023-02-04T13:44:52.762Z,1.37
2023-02-04T13:47:20.025Z,1.23
2023-02-04T13:49:47.186Z,0.98
2023-02-04T13:52:14.449Z,1.19
2023-02-04T13:54:41.646Z,1.10
2023-02-04T13:57:08.952Z,0.87
2023-02-04T13:59:37.542Z,0.87
2023-02-04T14:02:04.739Z,0.86
2023-02-04T14:04:32.028Z,0.80
2023-02-04T14:06:59.208Z,0.72
2023-02-04T14:09:26.408Z,0.75
2023-02-04T14:11:53.636Z,0.85
2023-02-04T14:14:20.773Z,0.84
2023-02-04T14:16:49.453Z,0.90
2023-02-04T14:19:16.678Z,1.03
2023-02-04T14:21:44.000Z,1.37
2023-02-04T14:24:11.320Z,0.83
2023-02-04T14:26:38.575Z,0.84
2023-02-04T14:29:05.794Z,0.88
2023-02-04T14:31:33.267Z,0.91
2023-02-04T14:34:01.945Z,0.97
2023-02-04T14:36:29.106Z,1.03
2023-02-04T14:38:56.737Z,1.13
2023-02-04T14:41:23.926Z,1.18
2023-02-04T14:43:51.056Z,1.24
2023-02-04T14:46:18.209Z,1.41
2023-02-04T14:48:45.705Z,1.76
2023-02-04T14:51:14.382Z,1.79
2023-02-04T14:53:46.050Z,1.35
2023-02-04T14:56:15.876Z,1.65
2023-02-04T14:58:43.541Z,1.41
2023-02-04T15:01:10.678Z,1.45
2023-02-04T15:03:37.761Z,1.48
2023-02-04T15:06:05.431Z,1.67
2023-02-04T15:08:34.051Z,1.75
2023-02-04T15:11:01.398Z,2.21
2023-02-04T15:13:28.825Z,1.65
2023-02-04T15:15:56.083Z,1.93
2023-02-04T15:18:23.608Z,1.68
2023-02-04T15:20:50.763Z,1.54
2023-02-04T15:23:18.211Z,1.51
2023-02-04T15:25:46.788Z,1.58
2023-02-04T15:28:14.487Z,1.77
2023-02-04T15:30:41.889Z,1.50
2023-02-04T15:33:09.215Z,1.54
2023-02-04T15:35:36.342Z,1.55
2023-02-04T15:38:03.483Z,1.55
2023-02-04T15:40:30.799Z,1.62
2023-02-04T15:42:59.691Z,1.45
2023-02-04T15:45:26.922Z,1.72
2023-02-04T15:47:54.052Z,1.66
2023-02-04T15:50:21.163Z,1.59
2023-02-04T15:52:48.573Z,1.72
2023-02-04T15:55:15.997Z,1.85
2023-02-04T15:57:43.203Z,1.99
2023-02-04T16:00:13.441Z,1.91
2023-02-04T16:02:40.580Z,2.01
2023-02-04T16:05:07.878Z,2.15
2023-02-04T16:07:35.160Z,2.24
2023-02-04T16:10:02.356Z,2.33
2023-02-04T16:12:29.481Z,2.31
2023-02-04T16:14:56.623Z,2.44
2023-02-04T16:17:25.195Z,2.28
2023-02-04T16:19:52.351Z,2.50
2023-02-04T16:22:19.567Z,2.31
2023-02-04T16:24:46.728Z,2.19
2023-02-04T16:27:13.943Z,2.20
2023-02-04T16:29:41.242Z,2.18
2023-02-04T16:32:08.519Z,1.94
2023-02-04T16:34:37.156Z,2.01
2023-02-04T16:37:04.393Z,1.81
2023-02-04T16:39:31.770Z,2.08
2023-02-04T16:41:58.989Z,2.02
2023-02-04T16:44:26.629Z,2.08
2023-02-04T16:46:54.980Z,2.13
2023-02-04T16:49:22.208Z,2.22
2023-02-04T16:51:50.950Z,2.35
2023-02-04T16:54:17.979Z,2.75
2023-02-04T16:56:45.071Z,2.62
2023-02-04T16:59:12.462Z,2.72
2023-02-04T17:01:39.832Z,2.73
2023-02-04T17:04:07.167Z,2.97
2023-02-04T17:06:34.382Z,2.90
2023-02-04T17:09:03.222Z,2.82
2023-02-04T17:11:30.503Z,2.79
2023-02-04T17:13:59.584Z,3.11
2023-02-04T17:16:27.298Z,3.20
2023-02-04T17:18:54.885Z,3.45
2023-02-04T17:21:23.706Z,3.40
2023-02-04T17:23:51.330Z,3.54
2023-02-04T17:26:20.651Z,3.81
2023-02-04T17:28:48.102Z,3.32
2023-02-04T17:31:15.612Z,3.67
2023-02-04T17:33:43.171Z,3.58
2023-02-04T17:36:11.192Z,3.49
2023-02-04T17:38:38.406Z,3.18
2023-02-04T17:41:05.778Z,3.15
2023-02-04T17:43:34.634Z,3.26
2023-02-04T17:46:01.935Z,3.38
2023-02-04T17:48:29.313Z,3.71
2023-02-04T17:50:58.085Z,3.53
2023-02-04T17:53:25.419Z,3.52
2023-02-04T17:55:52.659Z,3.46
2023-02-04T17:58:24.162Z,3.44
2023-02-04T18:00:54.467Z,3.34
2023-02-04T18:03:24.626Z,3.30
2023-02-04T18:05:53.970Z,2.01
2023-02-04T18:08:23.143Z,1.95
2023-02-04T18:10:51.880Z,20.80
2023-02-04T18:13:21.824Z,28.93
2023-02-04T18:15:54.844Z,21.16
2023-02-04T18:18:24.431Z,4.37
2023-02-04T18:20:58.528Z,4.17
2023-02-04T18:23:28.800Z,3.88
2023-02-04T18:26:05.187Z,3.90
2023-02-04T18:28:35.585Z,3.37
2023-02-04T18:31:17.972Z,4.13
2023-02-04T18:33:45.345Z,3.62
2023-02-04T18:36:20.150Z,3.82
2023-02-04T18:38:47.266Z,3.61
2023-02-04T18:41:28.226Z,3.61
2023-02-04T18:44:00.407Z,3.78
2023-02-04T18:46:32.941Z,3.27
2023-02-04T18:49:04.621Z,3.61
2023-02-04T18:51:35.154Z,3.65
2023-02-04T18:54:27.767Z,3.59
2023-02-04T18:57:17.153Z,3.35
2023-02-04T18:59:44.410Z,3.70
2023-02-04T19:02:35.926Z,3.73
2023-02-04T19:05:37.938Z,3.74
2023-02-04T19:08:26.285Z,3.85
2023-02-04T19:10:57.132Z,3.86
2023-02-04T19:13:26.540Z,4.09
2023-02-04T19:16:03.608Z,4.11
2023-02-04T19:19:03.198Z,4.09
2023-02-04T19:21:32.008Z,4.05
2023-02-04T19:24:17.806Z,4.01
2023-02-04T19:26:52.814Z,3.66
2023-02-04T19:29:37.989Z,4.07
2023-02-04T19:32:29.838Z,3.70
2023-02-04T19:35:23.632Z,3.92
2023-02-04T19:37:55.546Z,3.91
2023-02-04T19:40:30.628Z,3.86
2023-02-04T19:43:16.673Z,3.60
2023-02-04T19:45:45.801Z,3.61
2023-02-04T19:48:22.323Z,3.35
2023-02-04T19:50:53.254Z,3.57
2023-02-04T19:53:22.808Z,3.62
2023-02-04T19:55:51.817Z,3.72
2023-02-04T19:58:21.545Z,3.79
2023-02-04T20:01:01.151Z,4.07
2023-02-04T20:03:40.651Z,4.13
2023-02-04T20:06:32.079Z,3.89
2023-02-04T20:09:03.850Z,4.14
2023-02-04T20:11:41.024Z,4.15
2023-02-04T20:14:42.599Z,4.27
2023-02-04T20:17:37.375Z,4.68
2023-02-04T20:20:21.415Z,4.49
2023-02-04T20:22:53.516Z,4.85
2023-02-04T20:25:39.667Z,4.65
2023-02-04T20:28:32.863Z,4.48
2023-02-04T20:31:00.868Z,4.73
2023-02-04T20:33:45.125Z,4.83
2023-02-04T20:36:42.380Z,4.65
2023-02-04T20:39:37.724Z,4.43
2023-02-04T20:42:35.444Z,4.12
2023-02-04T20:45:30.595Z,3.70
2023-02-04T20:48:00.925Z,3.87
2023-02-04T20:50:41.784Z,3.72
2023-02-04T20:53:21.831Z,3.68
2023-02-04T20:55:53.250Z,3.77
2023-02-04T20:58:23.523Z,3.72
2023-02-04T21:00:53.282Z,3.45
2023-02-04T21:03:25.245Z,3.47
2023-02-04T21:05:53.975Z,3.46
2023-02-04T21:08:44.086Z,3.55
2023-02-04T21:11:12.986Z,3.05
2023-02-04T21:13:40.983Z,3.10
2023-02-04T21:16:08.587Z,3.07
2023-02-04T21:18:36.531Z,3.12
2023-02-04T21:21:04.919Z,3.24
2023-02-04T21:23:32.091Z,3.23
2023-02-04T21:25:59.684Z,3.35
2023-02-04T21:28:30.624Z,3.24
2023-02-04T21:30:57.990Z,2.98
2023-02-04T21:33:25.576Z,2.94
2023-02-04T21:35:52.925Z,3.07
2023-02-04T21:38:20.354Z,2.97
2023-02-04T21:40:47.622Z,2.96
2023-02-04T21:43:14.905Z,2.82
2023-02-04T21:45:43.502Z,2.54
2023-02-04T21:48:10.684Z,2.50
2023-02-04T21:50:38.264Z,2.77
2023-02-04T21:53:06.243Z,2.66
2023-02-04T21:55:33.721Z,2.62
2023-02-04T21:58:01.246Z,2.67
2023-02-04T22:00:29.195Z,2.68
2023-02-04T22:02:57.825Z,2.63
2023-02-04T22:05:25.564Z,2.79
2023-02-04T22:07:53.687Z,2.85
2023-02-04T22:10:23.371Z,3.29
2023-02-04T22:12:50.682Z,3.27
2023-02-04T22:15:18.626Z,3.83
2023-02-04T22:17:45.889Z,3.68
2023-02-04T22:20:15.335Z,3.85
2023-02-04T22:22:43.481Z,4.20
2023-02-04T22:25:11.737Z,4.55
2023-02-04T22:27:39.113Z,4.22
2023-02-04T22:30:08.217Z,4.55
2023-02-04T22:32:35.437Z,4.71
2023-02-04T22:35:02.581Z,4.68
2023-02-04T22:37:31.342Z,4.65
2023-02-04T22:39:58.659Z,4.74
2023-02-04T22:42:25.945Z,5.28
2023-02-04T22:44:53.239Z,5.02
2023-02-04T22:47:20.359Z,4.74
2023-02-04T22:49:47.640Z,4.95
2023-02-04T22:52:14.980Z,4.80
2023-02-04T22:54:43.580Z,4.78
2023-02-04T22:57:10.722Z,4.60
2023-02-04T22:59:38.004Z,4.75
2023-02-04T23:02:05.438Z,4.35
2023-02-04T23:04:32.557Z,4.71
2023-02-04T23:06:59.996Z,4.85
2023-02-04T23:09:27.234Z,7.21
2023-02-04T23:11:55.934Z,5.73
2023-02-04T23:14:23.113Z,5.62
2023-02-04T23:16:50.314Z,5.49
2023-02-04T23:19:17.774Z,5.38
2023-02-04T23:21:44.958Z,5.41
2023-02-04T23:24:12.073Z,5.87
2023-02-04T23:26:39.390Z,5.89
2023-02-04T23:29:08.012Z,6.04
2023-02-04T23:31:35.206Z,6.62
2023-02-04T23:34:02.451Z,6.13
2023-02-04T23:36:29.602Z,6.89
2023-02-04T23:38:56.823Z,6.87
2023-02-04T23:41:23.943Z,6.92
2023-02-04T23:43:51.123Z,8.30
2023-02-04T23:46:19.942Z,7.79
2023-02-04T23:48:47.654Z,7.53
2023-02-04T23:51:15.146Z,8.67
2023-02-04T23:53:42.389Z,8.19
2023-02-04T23:56:09.502Z,8.03
2023-02-04T23:58:36.663Z,7.75
